CPX759 Details

Departure: Indira Gandhi International Airport (VIDP)
Arrival: Changi International Airport (WSSS) at N/A
Route: ITBAN L759 PUT VPL W531 VIH A464 ARAMA
Notes:


Current Weather Information
VIDP 251100Z 06006G16KT 1200 R28/P2000 R29/P2000 -RA SCT025 FEW030CB OVC080 27/25 Q1003 TEMPO 1000 TSRA
WSSS 251100Z 22003KT 180V250 9999 FEW022 BKN150 29/23 Q1009 NOSIG